sensor_id;sensor_type;location;lat;lon;timestamp;temperature;humidity
21459;DHT22;10891;49.350;19.386;2022-12-31T00:00:57;4.40;99.90
21459;DHT22;10891;49.350;19.386;2022-12-31T00:03:24;4.50;99.90
21459;DHT22;10891;49.350;19.386;2022-12-31T00:05:51;4.60;99.90
21459;DHT22;10891;49.350;19.386;2022-12-31T00:08:19;4.70;99.90
21459;DHT22;10891;49.350;19.386;2022-12-31T00:10:46;4.70;99.90
21459;DHT22;10891;49.350;19.386;2022-12-31T00:13:13;4.80;99.90
21459;DHT22;10891;49.350;19.386;2022-12-31T00:15:41;4.70;99.90
21459;DHT22;10891;49.350;19.386;2022-12-31T00:18:09;4.70;99.90
21459;DHT22;10891;49.350;19.386;2022-12-31T00:20:38;4.70;99.90
21459;DHT22;10891;49.350;19.386;2022-12-31T00:23:07;4.70;99.90
21459;DHT22;10891;49.350;19.386;2022-12-31T00:25:35;4.70;99.90
21459;DHT22;10891;49.350;19.386;2022-12-31T00:28:03;4.70;99.90
21459;DHT22;10891;49.350;19.386;2022-12-31T00:30:30;4.70;99.90
21459;DHT22;10891;49.350;19.386;2022-12-31T00:32:58;4.70;99.90
21459;DHT22;10891;49.350;19.386;2022-12-31T00:35:25;4.70;99.90
21459;DHT22;10891;49.350;19.386;2022-12-31T00:37:52;4.60;99.90
21459;DHT22;10891;49.350;19.386;2022-12-31T00:40:19;4.50;99.90
21459;DHT22;10891;49.350;19.386;2022-12-31T00:42:47;4.40;99.90
21459;DHT22;10891;49.350;19.386;2022-12-31T00:45:14;4.30;99.90
21459;DHT22;10891;49.350;19.386;2022-12-31T00:47:41;4.10;99.90
21459;DHT22;10891;49.350;19.386;2022-12-31T00:50:08;4.10;99.90
21459;DHT22;10891;49.350;19.386;2022-12-31T00:52:35;4.00;99.90
21459;DHT22;10891;49.350;19.386;2022-12-31T00:55:03;4.00;99.90
21459;DHT22;10891;49.350;19.386;2022-12-31T00:57:30;4.00;99.90
21459;DHT22;10891;49.350;19.386;2022-12-31T00:59:58;4.10;99.90
21459;DHT22;10891;49.350;19.386;2022-12-31T01:02:25;4.20;99.90
21459;DHT22;10891;49.350;19.386;2022-12-31T01:04:52;4.20;99.90
21459;DHT22;10891;49.350;19.386;2022-12-31T01:07:19;4.20;99.90
21459;DHT22;10891;49.350;19.386;2022-12-31T01:09:45;4.20;99.90
21459;DHT22;10891;49.350;19.386;2022-12-31T01:12:12;4.20;99.90
21459;DHT22;10891;49.350;19.386;2022-12-31T01:14:39;4.30;99.90
21459;DHT22;10891;49.350;19.386;2022-12-31T01:17:08;4.40;99.90
21459;DHT22;10891;49.350;19.386;2022-12-31T01:19:34;4.50;99.90
21459;DHT22;10891;49.350;19.386;2022-12-31T01:22:01;4.60;99.90
21459;DHT22;10891;49.350;19.386;2022-12-31T01:24:28;4.60;99.90
21459;DHT22;10891;49.350;19.386;2022-12-31T01:26:55;4.60;99.90
21459;DHT22;10891;49.350;19.386;2022-12-31T01:29:23;4.70;99.90
21459;DHT22;10891;49.350;19.386;2022-12-31T01:31:50;4.70;99.90
21459;DHT22;10891;49.350;19.386;2022-12-31T01:34:18;4.80;99.90
21459;DHT22;10891;49.350;19.386;2022-12-31T01:36:45;4.90;99.90
21459;DHT22;10891;49.350;19.386;2022-12-31T01:39:12;5.00;99.90
21459;DHT22;10891;49.350;19.386;2022-12-31T01:41:41;5.10;99.90
21459;DHT22;10891;49.350;19.386;2022-12-31T01:44:49;5.10;99.90
21459;DHT22;10891;49.350;19.386;2022-12-31T01:47:20;5.10;99.90
21459;DHT22;10891;49.350;19.386;2022-12-31T01:49:53;5.10;99.90
21459;DHT22;10891;49.350;19.386;2022-12-31T01:52:26;5.20;99.90
21459;DHT22;10891;49.350;19.386;2022-12-31T01:54:58;5.20;99.90
21459;DHT22;10891;49.350;19.386;2022-12-31T01:57:26;5.20;99.90
21459;DHT22;10891;49.350;19.386;2022-12-31T01:59:54;5.20;99.90
21459;DHT22;10891;49.350;19.386;2022-12-31T02:02:22;5.30;99.90
21459;DHT22;10891;49.350;19.386;2022-12-31T02:04:52;5.20;99.90
21459;DHT22;10891;49.350;19.386;2022-12-31T02:07:20;5.30;99.90
21459;DHT22;10891;49.350;19.386;2022-12-31T02:09:48;5.30;99.90
21459;DHT22;10891;49.350;19.386;2022-12-31T02:12:15;5.30;99.90
21459;DHT22;10891;49.350;19.386;2022-12-31T02:14:45;5.30;99.90
21459;DHT22;10891;49.350;19.386;2022-12-31T02:17:19;5.40;99.90
21459;DHT22;10891;49.350;19.386;2022-12-31T02:20:07;5.40;99.90
21459;DHT22;10891;49.350;19.386;2022-12-31T02:22:51;5.40;99.90
21459;DHT22;10891;49.350;19.386;2022-12-31T02:25:44;5.40;99.90
21459;DHT22;10891;49.350;19.386;2022-12-31T02:28:26;5.50;99.90
21459;DHT22;10891;49.350;19.386;2022-12-31T02:31:00;5.50;99.90
21459;DHT22;10891;49.350;19.386;2022-12-31T02:33:38;5.40;99.90
21459;DHT22;10891;49.350;19.386;2022-12-31T02:36:11;5.40;99.90
21459;DHT22;10891;49.350;19.386;2022-12-31T02:38:41;5.40;99.90
21459;DHT22;10891;49.350;19.386;2022-12-31T02:41:12;5.50;99.90
21459;DHT22;10891;49.350;19.386;2022-12-31T02:44:00;5.50;99.90
21459;DHT22;10891;49.350;19.386;2022-12-31T02:46:31;5.50;99.90
21459;DHT22;10891;49.350;19.386;2022-12-31T02:49:06;5.50;99.90
21459;DHT22;10891;49.350;19.386;2022-12-31T02:51:40;5.50;99.90
21459;DHT22;10891;49.350;19.386;2022-12-31T02:54:27;5.50;99.90
21459;DHT22;10891;49.350;19.386;2022-12-31T02:57:04;5.40;99.90
21459;DHT22;10891;49.350;19.386;2022-12-31T02:59:37;5.40;99.90
21459;DHT22;10891;49.350;19.386;2022-12-31T03:02:26;5.40;99.90
21459;DHT22;10891;49.350;19.386;2022-12-31T03:04:55;5.40;99.90
21459;DHT22;10891;49.350;19.386;2022-12-31T03:07:24;5.30;99.90
21459;DHT22;10891;49.350;19.386;2022-12-31T03:09:52;5.40;99.90
21459;DHT22;10891;49.350;19.386;2022-12-31T03:12:22;5.40;99.90
21459;DHT22;10891;49.350;19.386;2022-12-31T03:15:09;5.40;99.90
21459;DHT22;10891;49.350;19.386;2022-12-31T03:17:48;5.30;99.90
21459;DHT22;10891;49.350;19.386;2022-12-31T03:20:15;5.30;99.90
21459;DHT22;10891;49.350;19.386;2022-12-31T03:23:00;5.30;99.90
21459;DHT22;10891;49.350;19.386;2022-12-31T03:25:29;5.30;99.90
21459;DHT22;10891;49.350;19.386;2022-12-31T03:28:02;5.40;99.90
21459;DHT22;10891;49.350;19.386;2022-12-31T03:30:31;5.40;99.90
21459;DHT22;10891;49.350;19.386;2022-12-31T03:32:59;5.40;99.90
21459;DHT22;10891;49.350;19.386;2022-12-31T03:35:27;5.40;99.90
21459;DHT22;10891;49.350;19.386;2022-12-31T03:37:55;5.40;99.90
21459;DHT22;10891;49.350;19.386;2022-12-31T03:40:24;5.40;99.90
21459;DHT22;10891;49.350;19.386;2022-12-31T03:42:51;5.40;99.90
21459;DHT22;10891;49.350;19.386;2022-12-31T03:45:19;5.40;99.90
21459;DHT22;10891;49.350;19.386;2022-12-31T03:47:46;5.40;99.90
21459;DHT22;10891;49.350;19.386;2022-12-31T03:50:16;5.40;99.90
21459;DHT22;10891;49.350;19.386;2022-12-31T03:52:43;5.40;99.90
21459;DHT22;10891;49.350;19.386;2022-12-31T03:55:10;5.30;99.90
21459;DHT22;10891;49.350;19.386;2022-12-31T03:57:38;5.30;99.90
21459;DHT22;10891;49.350;19.386;2022-12-31T04:00:08;5.30;99.90
21459;DHT22;10891;49.350;19.386;2022-12-31T04:02:36;5.40;99.90
21459;DHT22;10891;49.350;19.386;2022-12-31T04:05:03;5.30;99.90
21459;DHT22;10891;49.350;19.386;2022-12-31T04:07:32;5.50;99.90
21459;DHT22;10891;49.350;19.386;2022-12-31T04:09:59;5.50;99.90
21459;DHT22;10891;49.350;19.386;2022-12-31T04:12:25;5.50;99.90
21459;DHT22;10891;49.350;19.386;2022-12-31T04:14:52;5.50;99.90
21459;DHT22;10891;49.350;19.386;2022-12-31T04:17:19;5.50;99.90
21459;DHT22;10891;49.350;19.386;2022-12-31T04:19:46;5.50;99.90
21459;DHT22;10891;49.350;19.386;2022-12-31T04:22:13;5.40;99.90
21459;DHT22;10891;49.350;19.386;2022-12-31T04:24:42;5.50;99.90
21459;DHT22;10891;49.350;19.386;2022-12-31T04:27:09;5.40;99.90
21459;DHT22;10891;49.350;19.386;2022-12-31T04:29:36;5.40;99.90
21459;DHT22;10891;49.350;19.386;2022-12-31T04:32:04;5.50;99.90
21459;DHT22;10891;49.350;19.386;2022-12-31T04:34:32;5.60;99.90
21459;DHT22;10891;49.350;19.386;2022-12-31T04:36:59;5.60;99.90
21459;DHT22;10891;49.350;19.386;2022-12-31T04:39:26;5.60;99.90
21459;DHT22;10891;49.350;19.386;2022-12-31T04:41:54;5.60;99.90
21459;DHT22;10891;49.350;19.386;2022-12-31T04:44:21;5.60;99.90
21459;DHT22;10891;49.350;19.386;2022-12-31T04:46:48;5.70;99.90
21459;DHT22;10891;49.350;19.386;2022-12-31T04:49:15;5.60;99.90
21459;DHT22;10891;49.350;19.386;2022-12-31T04:51:42;5.70;99.90
21459;DHT22;10891;49.350;19.386;2022-12-31T04:54:08;5.70;99.90
21459;DHT22;10891;49.350;19.386;2022-12-31T04:56:35;5.70;99.90
21459;DHT22;10891;49.350;19.386;2022-12-31T04:59:04;5.70;99.90
21459;DHT22;10891;49.350;19.386;2022-12-31T05:01:31;5.60;99.90
21459;DHT22;10891;49.350;19.386;2022-12-31T05:03:58;5.60;99.90
21459;DHT22;10891;49.350;19.386;2022-12-31T05:06:25;5.70;99.90
21459;DHT22;10891;49.350;19.386;2022-12-31T05:08:52;5.70;99.90
21459;DHT22;10891;49.350;19.386;2022-12-31T05:11:19;5.70;99.90
21459;DHT22;10891;49.350;19.386;2022-12-31T05:13:46;5.60;99.90
21459;DHT22;10891;49.350;19.386;2022-12-31T05:16:14;5.70;99.90
21459;DHT22;10891;49.350;19.386;2022-12-31T05:18:41;5.60;99.90
21459;DHT22;10891;49.350;19.386;2022-12-31T05:21:09;5.60;99.90
21459;DHT22;10891;49.350;19.386;2022-12-31T05:23:38;5.50;99.90
21459;DHT22;10891;49.350;19.386;2022-12-31T05:26:05;5.50;99.90
21459;DHT22;10891;49.350;19.386;2022-12-31T05:28:32;5.40;99.90
21459;DHT22;10891;49.350;19.386;2022-12-31T05:30:59;5.30;99.90
21459;DHT22;10891;49.350;19.386;2022-12-31T05:33:27;5.30;99.90
21459;DHT22;10891;49.350;19.386;2022-12-31T05:35:54;5.30;99.90
21459;DHT22;10891;49.350;19.386;2022-12-31T05:38:23;5.20;99.90
21459;DHT22;10891;49.350;19.386;2022-12-31T05:40:58;5.20;99.90
21459;DHT22;10891;49.350;19.386;2022-12-31T05:43:25;5.20;99.90
21459;DHT22;10891;49.350;19.386;2022-12-31T05:45:51;5.30;99.90
21459;DHT22;10891;49.350;19.386;2022-12-31T05:48:18;5.30;99.90
21459;DHT22;10891;49.350;19.386;2022-12-31T05:50:47;5.30;99.90
21459;DHT22;10891;49.350;19.386;2022-12-31T05:53:14;5.30;99.90
21459;DHT22;10891;49.350;19.386;2022-12-31T05:55:41;5.30;99.90
21459;DHT22;10891;49.350;19.386;2022-12-31T05:58:08;5.30;99.90
21459;DHT22;10891;49.350;19.386;2022-12-31T06:00:35;5.20;99.90
21459;DHT22;10891;49.350;19.386;2022-12-31T06:03:02;5.20;99.90
21459;DHT22;10891;49.350;19.386;2022-12-31T06:05:29;5.20;99.90
21459;DHT22;10891;49.350;19.386;2022-12-31T06:07:57;5.20;99.90
21459;DHT22;10891;49.350;19.386;2022-12-31T06:10:24;5.20;99.90
21459;DHT22;10891;49.350;19.386;2022-12-31T06:12:51;5.20;99.90
21459;DHT22;10891;49.350;19.386;2022-12-31T06:15:18;5.10;99.90
21459;DHT22;10891;49.350;19.386;2022-12-31T06:17:45;5.10;99.90
21459;DHT22;10891;49.350;19.386;2022-12-31T06:20:12;5.10;99.90
21459;DHT22;10891;49.350;19.386;2022-12-31T06:22:39;5.10;99.90
21459;DHT22;10891;49.350;19.386;2022-12-31T06:25:08;5.00;99.90
21459;DHT22;10891;49.350;19.386;2022-12-31T06:27:35;5.00;99.90
21459;DHT22;10891;49.350;19.386;2022-12-31T06:30:03;5.00;99.90
21459;DHT22;10891;49.350;19.386;2022-12-31T06:32:30;5.10;99.90
21459;DHT22;10891;49.350;19.386;2022-12-31T06:34:58;5.10;99.90
21459;DHT22;10891;49.350;19.386;2022-12-31T06:37:25;5.20;99.90
21459;DHT22;10891;49.350;19.386;2022-12-31T06:39:53;5.10;99.90
21459;DHT22;10891;49.350;19.386;2022-12-31T06:42:22;5.10;99.90
21459;DHT22;10891;49.350;19.386;2022-12-31T06:44:49;5.10;99.90
21459;DHT22;10891;49.350;19.386;2022-12-31T06:47:16;5.10;99.90
21459;DHT22;10891;49.350;19.386;2022-12-31T06:49:43;5.20;99.90
21459;DHT22;10891;49.350;19.386;2022-12-31T06:52:10;5.10;99.90
21459;DHT22;10891;49.350;19.386;2022-12-31T06:54:37;5.10;99.90
21459;DHT22;10891;49.350;19.386;2022-12-31T06:57:05;5.10;99.90
21459;DHT22;10891;49.350;19.386;2022-12-31T06:59:35;5.20;99.90
21459;DHT22;10891;49.350;19.386;2022-12-31T07:02:16;5.30;99.90
21459;DHT22;10891;49.350;19.386;2022-12-31T07:05:08;5.50;99.90
21459;DHT22;10891;49.350;19.386;2022-12-31T07:07:52;5.60;99.90
21459;DHT22;10891;49.350;19.386;2022-12-31T07:10:27;5.70;99.90
21459;DHT22;10891;49.350;19.386;2022-12-31T07:16:07;5.90;99.90
21459;DHT22;10891;49.350;19.386;2022-12-31T07:18:41;6.00;99.90
21459;DHT22;10891;49.350;19.386;2022-12-31T07:21:13;6.00;99.90
21459;DHT22;10891;49.350;19.386;2022-12-31T07:23:41;5.90;99.90
21459;DHT22;10891;49.350;19.386;2022-12-31T07:26:21;5.90;99.90
21459;DHT22;10891;49.350;19.386;2022-12-31T07:28:59;5.90;99.90
21459;DHT22;10891;49.350;19.386;2022-12-31T07:31:38;6.00;99.90
21459;DHT22;10891;49.350;19.386;2022-12-31T07:34:13;6.10;99.90
21459;DHT22;10891;49.350;19.386;2022-12-31T07:36:53;6.30;99.90
21459;DHT22;10891;49.350;19.386;2022-12-31T07:39:30;6.50;99.90
21459;DHT22;10891;49.350;19.386;2022-12-31T07:42:03;6.50;99.90
21459;DHT22;10891;49.350;19.386;2022-12-31T07:44:43;6.60;99.90
21459;DHT22;10891;49.350;19.386;2022-12-31T07:47:21;6.60;99.90
21459;DHT22;10891;49.350;19.386;2022-12-31T07:49:49;6.60;99.90
21459;DHT22;10891;49.350;19.386;2022-12-31T07:52:17;6.60;99.90
21459;DHT22;10891;49.350;19.386;2022-12-31T07:54:45;6.70;99.90
21459;DHT22;10891;49.350;19.386;2022-12-31T07:57:14;6.80;99.90
21459;DHT22;10891;49.350;19.386;2022-12-31T07:59:53;6.90;99.90
21459;DHT22;10891;49.350;19.386;2022-12-31T08:02:49;7.10;99.90
21459;DHT22;10891;49.350;19.386;2022-12-31T08:05:24;7.10;99.90
21459;DHT22;10891;49.350;19.386;2022-12-31T08:08:02;7.20;99.90
21459;DHT22;10891;49.350;19.386;2022-12-31T08:10:38;7.20;99.90
21459;DHT22;10891;49.350;19.386;2022-12-31T08:13:09;7.20;99.90
21459;DHT22;10891;49.350;19.386;2022-12-31T08:15:38;7.10;99.90
21459;DHT22;10891;49.350;19.386;2022-12-31T08:18:07;7.00;99.90
21459;DHT22;10891;49.350;19.386;2022-12-31T08:20:43;6.90;99.90
21459;DHT22;10891;49.350;19.386;2022-12-31T08:23:22;7.00;99.90
21459;DHT22;10891;49.350;19.386;2022-12-31T08:26:02;7.20;99.90
21459;DHT22;10891;49.350;19.386;2022-12-31T08:28:45;7.20;99.90
21459;DHT22;10891;49.350;19.386;2022-12-31T08:31:17;7.30;99.90
21459;DHT22;10891;49.350;19.386;2022-12-31T08:33:52;7.30;99.90
21459;DHT22;10891;49.350;19.386;2022-12-31T08:36:26;7.20;99.90
21459;DHT22;10891;49.350;19.386;2022-12-31T08:39:00;7.40;99.90
21459;DHT22;10891;49.350;19.386;2022-12-31T08:41:30;7.40;99.90
21459;DHT22;10891;49.350;19.386;2022-12-31T08:44:07;7.30;99.90
21459;DHT22;10891;49.350;19.386;2022-12-31T08:46:40;7.40;99.90
21459;DHT22;10891;49.350;19.386;2022-12-31T08:49:13;7.40;99.90
21459;DHT22;10891;49.350;19.386;2022-12-31T08:51:41;7.40;99.90
21459;DHT22;10891;49.350;19.386;2022-12-31T08:54:10;7.30;99.90
21459;DHT22;10891;49.350;19.386;2022-12-31T08:56:43;7.20;99.90
21459;DHT22;10891;49.350;19.386;2022-12-31T08:59:21;7.20;99.90
21459;DHT22;10891;49.350;19.386;2022-12-31T09:02:06;7.30;99.90
21459;DHT22;10891;49.350;19.386;2022-12-31T09:04:49;7.40;99.90
21459;DHT22;10891;49.350;19.386;2022-12-31T09:07:24;7.50;99.90
21459;DHT22;10891;49.350;19.386;2022-12-31T09:10:02;7.80;99.90
21459;DHT22;10891;49.350;19.386;2022-12-31T09:12:36;8.10;99.90
21459;DHT22;10891;49.350;19.386;2022-12-31T09:15:08;8.30;99.90
21459;DHT22;10891;49.350;19.386;2022-12-31T09:17:43;8.40;99.90
21459;DHT22;10891;49.350;19.386;2022-12-31T09:20:19;8.40;99.90
21459;DHT22;10891;49.350;19.386;2022-12-31T09:22:48;8.10;99.90
21459;DHT22;10891;49.350;19.386;2022-12-31T09:25:18;8.00;99.90
21459;DHT22;10891;49.350;19.386;2022-12-31T09:27:56;7.90;99.90
21459;DHT22;10891;49.350;19.386;2022-12-31T09:30:31;7.60;99.90
21459;DHT22;10891;49.350;19.386;2022-12-31T09:33:09;7.60;99.90
21459;DHT22;10891;49.350;19.386;2022-12-31T09:35:42;7.80;99.90
21459;DHT22;10891;49.350;19.386;2022-12-31T09:38:15;7.90;99.90
21459;DHT22;10891;49.350;19.386;2022-12-31T09:47:30;8.30;99.90
21459;DHT22;10891;49.350;19.386;2022-12-31T09:50:42;8.10;99.90
21459;DHT22;10891;49.350;19.386;2022-12-31T09:53:45;8.00;99.90
21459;DHT22;10891;49.350;19.386;2022-12-31T09:56:22;8.00;99.90
21459;DHT22;10891;49.350;19.386;2022-12-31T09:58:59;7.90;99.90
21459;DHT22;10891;49.350;19.386;2022-12-31T10:01:45;7.80;99.90
21459;DHT22;10891;49.350;19.386;2022-12-31T10:04:39;7.70;99.90
21459;DHT22;10891;49.350;19.386;2022-12-31T10:07:21;7.90;99.90
21459;DHT22;10891;49.350;19.386;2022-12-31T10:10:05;8.10;99.90
21459;DHT22;10891;49.350;19.386;2022-12-31T10:15:45;8.80;99.90
21459;DHT22;10891;49.350;19.386;2022-12-31T10:18:27;8.90;99.90
21459;DHT22;10891;49.350;19.386;2022-12-31T10:21:04;8.90;99.90
21459;DHT22;10891;49.350;19.386;2022-12-31T10:23:50;8.90;99.90
21459;DHT22;10891;49.350;19.386;2022-12-31T10:26:29;8.80;99.90
21459;DHT22;10891;49.350;19.386;2022-12-31T10:29:10;8.90;99.90
21459;DHT22;10891;49.350;19.386;2022-12-31T10:31:51;8.90;99.90
21459;DHT22;10891;49.350;19.386;2022-12-31T10:34:26;8.80;99.90
21459;DHT22;10891;49.350;19.386;2022-12-31T10:37:02;8.80;99.90
21459;DHT22;10891;49.350;19.386;2022-12-31T10:39:46;8.70;99.90
21459;DHT22;10891;49.350;19.386;2022-12-31T10:42:40;8.80;99.90
21459;DHT22;10891;49.350;19.386;2022-12-31T10:45:38;8.60;99.90
21459;DHT22;10891;49.350;19.386;2022-12-31T10:48:37;8.40;99.90
21459;DHT22;10891;49.350;19.386;2022-12-31T10:51:41;8.30;99.90
21459;DHT22;10891;49.350;19.386;2022-12-31T10:57:44;8.10;99.90
21459;DHT22;10891;49.350;19.386;2022-12-31T11:00:19;8.00;99.90
21459;DHT22;10891;49.350;19.386;2022-12-31T11:12:22;8.30;99.90
21459;DHT22;10891;49.350;19.386;2022-12-31T11:15:02;8.30;99.90
21459;DHT22;10891;49.350;19.386;2022-12-31T11:17:47;8.30;99.90
21459;DHT22;10891;49.350;19.386;2022-12-31T11:20:41;8.30;99.90
21459;DHT22;10891;49.350;19.386;2022-12-31T11:23:25;8.30;99.90
21459;DHT22;10891;49.350;19.386;2022-12-31T11:26:04;8.40;99.90
21459;DHT22;10891;49.350;19.386;2022-12-31T11:31:46;8.70;99.90
21459;DHT22;10891;49.350;19.386;2022-12-31T11:34:32;8.70;99.90
21459;DHT22;10891;49.350;19.386;2022-12-31T11:37:26;8.70;99.90
21459;DHT22;10891;49.350;19.386;2022-12-31T11:40:05;8.70;99.90
21459;DHT22;10891;49.350;19.386;2022-12-31T11:42:43;8.70;99.90
21459;DHT22;10891;49.350;19.386;2022-12-31T11:45:15;8.80;99.90
21459;DHT22;10891;49.350;19.386;2022-12-31T11:47:56;8.70;99.90
21459;DHT22;10891;49.350;19.386;2022-12-31T11:50:30;8.70;99.90
21459;DHT22;10891;49.350;19.386;2022-12-31T11:53:12;8.60;99.90
21459;DHT22;10891;49.350;19.386;2022-12-31T11:55:48;8.60;99.90
21459;DHT22;10891;49.350;19.386;2022-12-31T11:58:20;8.50;99.90
21459;DHT22;10891;49.350;19.386;2022-12-31T12:00:55;8.50;99.90
21459;DHT22;10891;49.350;19.386;2022-12-31T12:03:24;8.40;99.90
21459;DHT22;10891;49.350;19.386;2022-12-31T12:05:51;8.30;99.90
21459;DHT22;10891;49.350;19.386;2022-12-31T12:08:19;8.30;99.90
21459;DHT22;10891;49.350;19.386;2022-12-31T12:10:47;8.30;99.90
21459;DHT22;10891;49.350;19.386;2022-12-31T12:13:22;8.30;99.90
21459;DHT22;10891;49.350;19.386;2022-12-31T12:15:50;8.30;99.90
21459;DHT22;10891;49.350;19.386;2022-12-31T12:18:29;8.20;99.90
21459;DHT22;10891;49.350;19.386;2022-12-31T12:21:03;8.20;99.90
21459;DHT22;10891;49.350;19.386;2022-12-31T12:23:31;8.20;99.90
21459;DHT22;10891;49.350;19.386;2022-12-31T12:25:58;8.20;99.90
21459;DHT22;10891;49.350;19.386;2022-12-31T12:28:28;8.20;99.90
21459;DHT22;10891;49.350;19.386;2022-12-31T12:30:58;8.30;99.90
21459;DHT22;10891;49.350;19.386;2022-12-31T12:33:29;8.30;99.90
21459;DHT22;10891;49.350;19.386;2022-12-31T12:36:07;8.30;99.90
21459;DHT22;10891;49.350;19.386;2022-12-31T12:38:35;8.40;99.90
21459;DHT22;10891;49.350;19.386;2022-12-31T12:41:03;8.40;99.90
21459;DHT22;10891;49.350;19.386;2022-12-31T12:43:32;8.40;99.90
21459;DHT22;10891;49.350;19.386;2022-12-31T12:46:01;8.40;99.90
21459;DHT22;10891;49.350;19.386;2022-12-31T12:48:35;8.40;99.90
21459;DHT22;10891;49.350;19.386;2022-12-31T12:51:14;8.40;99.90
21459;DHT22;10891;49.350;19.386;2022-12-31T12:53:52;8.50;99.90
21459;DHT22;10891;49.350;19.386;2022-12-31T12:56:30;8.60;99.90
21459;DHT22;10891;49.350;19.386;2022-12-31T13:01:59;8.60;99.90
21459;DHT22;10891;49.350;19.386;2022-12-31T13:04:44;8.60;99.90
21459;DHT22;10891;49.350;19.386;2022-12-31T13:07:27;8.60;99.90
21459;DHT22;10891;49.350;19.386;2022-12-31T13:10:18;8.60;99.90
21459;DHT22;10891;49.350;19.386;2022-12-31T13:12:53;8.60;99.90
21459;DHT22;10891;49.350;19.386;2022-12-31T13:15:28;8.60;99.90
21459;DHT22;10891;49.350;19.386;2022-12-31T13:18:06;8.60;99.90
21459;DHT22;10891;49.350;19.386;2022-12-31T13:20:43;8.60;99.90
21459;DHT22;10891;49.350;19.386;2022-12-31T13:23:18;8.50;99.90
21459;DHT22;10891;49.350;19.386;2022-12-31T13:25:59;8.60;99.90
21459;DHT22;10891;49.350;19.386;2022-12-31T13:28:30;8.50;99.90
21459;DHT22;10891;49.350;19.386;2022-12-31T13:30:59;8.40;99.90
21459;DHT22;10891;49.350;19.386;2022-12-31T13:33:30;8.40;99.90
21459;DHT22;10891;49.350;19.386;2022-12-31T13:36:02;8.40;99.90
21459;DHT22;10891;49.350;19.386;2022-12-31T13:38:34;8.30;99.90
21459;DHT22;10891;49.350;19.386;2022-12-31T13:41:04;8.30;99.90
21459;DHT22;10891;49.350;19.386;2022-12-31T13:43:38;8.20;99.90
21459;DHT22;10891;49.350;19.386;2022-12-31T13:46:15;8.20;99.90
21459;DHT22;10891;49.350;19.386;2022-12-31T13:48:49;8.30;99.90
21459;DHT22;10891;49.350;19.386;2022-12-31T13:51:25;8.30;99.90
21459;DHT22;10891;49.350;19.386;2022-12-31T13:53:59;8.40;99.90
21459;DHT22;10891;49.350;19.386;2022-12-31T13:56:33;8.50;99.90
21459;DHT22;10891;49.350;19.386;2022-12-31T13:59:05;8.50;99.90
21459;DHT22;10891;49.350;19.386;2022-12-31T14:01:37;8.50;99.90
21459;DHT22;10891;49.350;19.386;2022-12-31T14:04:11;8.60;99.90
21459;DHT22;10891;49.350;19.386;2022-12-31T14:06:45;8.70;99.90
21459;DHT22;10891;49.350;19.386;2022-12-31T14:09:19;8.80;99.90
21459;DHT22;10891;49.350;19.386;2022-12-31T14:15:04;8.80;99.90
21459;DHT22;10891;49.350;19.386;2022-12-31T14:17:37;8.90;99.90
21459;DHT22;10891;49.350;19.386;2022-12-31T14:20:15;8.80;99.90
21459;DHT22;10891;49.350;19.386;2022-12-31T14:22:50;8.90;99.90
21459;DHT22;10891;49.350;19.386;2022-12-31T14:25:26;8.90;99.90
21459;DHT22;10891;49.350;19.386;2022-12-31T14:27:56;9.00;99.90
21459;DHT22;10891;49.350;19.386;2022-12-31T14:30:28;8.90;99.90
21459;DHT22;10891;49.350;19.386;2022-12-31T14:33:07;8.90;99.90
21459;DHT22;10891;49.350;19.386;2022-12-31T14:35:54;8.90;99.90
21459;DHT22;10891;49.350;19.386;2022-12-31T14:38:36;8.90;99.90
21459;DHT22;10891;49.350;19.386;2022-12-31T14:41:17;9.10;99.90
21459;DHT22;10891;49.350;19.386;2022-12-31T14:43:58;9.10;99.90
21459;DHT22;10891;49.350;19.386;2022-12-31T14:46:32;9.10;99.90
21459;DHT22;10891;49.350;19.386;2022-12-31T14:49:15;9.10;99.90
21459;DHT22;10891;49.350;19.386;2022-12-31T14:51:46;9.10;99.90
21459;DHT22;10891;49.350;19.386;2022-12-31T14:54:27;9.10;99.90
21459;DHT22;10891;49.350;19.386;2022-12-31T14:56:55;9.10;99.90
21459;DHT22;10891;49.350;19.386;2022-12-31T14:59:25;9.10;99.90
21459;DHT22;10891;49.350;19.386;2022-12-31T15:01:53;9.10;99.90
21459;DHT22;10891;49.350;19.386;2022-12-31T15:04:31;9.00;99.90
21459;DHT22;10891;49.350;19.386;2022-12-31T15:07:06;8.90;99.90
21459;DHT22;10891;49.350;19.386;2022-12-31T15:10:02;8.90;99.90
21459;DHT22;10891;49.350;19.386;2022-12-31T15:12:48;9.00;99.90
21459;DHT22;10891;49.350;19.386;2022-12-31T15:18:36;9.10;99.90
21459;DHT22;10891;49.350;19.386;2022-12-31T15:21:24;9.10;99.90
21459;DHT22;10891;49.350;19.386;2022-12-31T15:23:56;9.10;99.90
21459;DHT22;10891;49.350;19.386;2022-12-31T15:26:27;9.20;99.90
21459;DHT22;10891;49.350;19.386;2022-12-31T15:28:59;9.30;99.90
21459;DHT22;10891;49.350;19.386;2022-12-31T15:31:27;9.20;99.90
21459;DHT22;10891;49.350;19.386;2022-12-31T15:33:59;9.20;99.90
21459;DHT22;10891;49.350;19.386;2022-12-31T15:36:28;9.30;99.90
21459;DHT22;10891;49.350;19.386;2022-12-31T15:39:24;9.30;99.90
21459;DHT22;10891;49.350;19.386;2022-12-31T15:41:53;9.30;99.90
21459;DHT22;10891;49.350;19.386;2022-12-31T15:44:24;9.30;99.90
21459;DHT22;10891;49.350;19.386;2022-12-31T15:46:58;9.20;99.90
21459;DHT22;10891;49.350;19.386;2022-12-31T15:49:31;9.30;99.90
21459;DHT22;10891;49.350;19.386;2022-12-31T15:52:04;9.20;99.90
21459;DHT22;10891;49.350;19.386;2022-12-31T15:54:35;9.30;99.90
21459;DHT22;10891;49.350;19.386;2022-12-31T15:57:10;9.20;99.90
21459;DHT22;10891;49.350;19.386;2022-12-31T15:59:38;9.20;99.90
21459;DHT22;10891;49.350;19.386;2022-12-31T16:02:17;9.20;99.90
21459;DHT22;10891;49.350;19.386;2022-12-31T16:04:45;9.20;99.90
21459;DHT22;10891;49.350;19.386;2022-12-31T16:07:13;9.10;99.90
21459;DHT22;10891;49.350;19.386;2022-12-31T16:09:40;9.10;99.90
21459;DHT22;10891;49.350;19.386;2022-12-31T16:12:10;9.00;99.90
21459;DHT22;10891;49.350;19.386;2022-12-31T16:14:39;8.90;99.90
21459;DHT22;10891;49.350;19.386;2022-12-31T16:17:24;8.90;99.90
21459;DHT22;10891;49.350;19.386;2022-12-31T16:19:51;8.90;99.90
21459;DHT22;10891;49.350;19.386;2022-12-31T16:22:25;8.90;99.90
21459;DHT22;10891;49.350;19.386;2022-12-31T16:24:53;8.90;99.90
21459;DHT22;10891;49.350;19.386;2022-12-31T16:27:23;8.90;99.90
21459;DHT22;10891;49.350;19.386;2022-12-31T16:29:57;8.90;99.90
21459;DHT22;10891;49.350;19.386;2022-12-31T16:32:25;8.90;99.90
21459;DHT22;10891;49.350;19.386;2022-12-31T16:34:52;9.00;99.90
21459;DHT22;10891;49.350;19.386;2022-12-31T16:37:21;9.00;99.90
21459;DHT22;10891;49.350;19.386;2022-12-31T16:40:10;9.00;99.90
21459;DHT22;10891;49.350;19.386;2022-12-31T16:42:44;9.00;99.90
21459;DHT22;10891;49.350;19.386;2022-12-31T16:45:30;9.00;99.90